sensor_id;sensor_type;location;lat;lon;timestamp;pressure;altitude;pressure_sealevel;temperature;humidity
78679;BME280;67994;59.334;13.528;2023-03-26T00:00:00;99500.0;;;-2.3;82.5
78679;BME280;67994;59.334;13.528;2023-03-26T00:01:00;99500.0;;;-2.3;82.5
78679;BME280;67994;59.334;13.528;2023-03-26T00:02:00;99500.0;;;-2.3;82.6
78679;BME280;67994;59.334;13.528;2023-03-26T00:03:00;99500.0;;;-2.3;82.0
78679;BME280;67994;59.334;13.528;2023-03-26T00:04:00;99500.0;;;-2.4;82.6
78679;BME280;67994;59.334;13.528;2023-03-26T00:05:00;99500.0;;;-2.5;81.9
78679;BME280;67994;59.334;13.528;2023-03-26T00:06:01;99500.0;;;-2.4;82.0
78679;BME280;67994;59.334;13.528;2023-03-26T00:07:00;99500.0;;;-2.5;81.8
78679;BME280;67994;59.334;13.528;2023-03-26T00:08:00;99500.0;;;-2.5;81.7
78679;BME280;67994;59.334;13.528;2023-03-26T00:09:00;99500.0;;;-2.4;81.9
78679;BME280;67994;59.334;13.528;2023-03-26T00:10:00;99500.0;;;-2.4;82.1
78679;BME280;67994;59.334;13.528;2023-03-26T00:11:00;99500.0;;;-2.4;82.0
78679;BME280;67994;59.334;13.528;2023-03-26T00:12:00;99500.0;;;-2.5;81.7
78679;BME280;67994;59.334;13.528;2023-03-26T00:13:00;99500.0;;;-2.5;81.7
78679;BME280;67994;59.334;13.528;2023-03-26T00:14:00;99500.0;;;-2.6;81.3
78679;BME280;67994;59.334;13.528;2023-03-26T00:15:00;99500.0;;;-2.6;80.8
78679;BME280;67994;59.334;13.528;2023-03-26T00:16:02;99500.0;;;-2.6;81.1
78679;BME280;67994;59.334;13.528;2023-03-26T00:17:00;99500.0;;;-2.5;80.8
78679;BME280;67994;59.334;13.528;2023-03-26T00:18:00;99500.0;;;-2.6;80.6
78679;BME280;67994;59.334;13.528;2023-03-26T00:19:01;99500.0;;;-2.5;80.6
78679;BME280;67994;59.334;13.528;2023-03-26T00:20:00;99500.0;;;-2.6;80.4
78679;BME280;67994;59.334;13.528;2023-03-26T00:21:01;99500.0;;;-2.5;80.2
78679;BME280;67994;59.334;13.528;2023-03-26T00:22:00;99500.0;;;-2.5;80.5
78679;BME280;67994;59.334;13.528;2023-03-26T00:23:00;99500.0;;;-2.5;80.5
78679;BME280;67994;59.334;13.528;2023-03-26T00:24:02;99500.0;;;-2.5;80.2
78679;BME280;67994;59.334;13.528;2023-03-26T00:25:00;99500.0;;;-2.6;80.0
78679;BME280;67994;59.334;13.528;2023-03-26T00:26:00;99500.0;;;-2.5;80.1
78679;BME280;67994;59.334;13.528;2023-03-26T00:27:00;99500.0;;;-2.5;80.6
78679;BME280;67994;59.334;13.528;2023-03-26T00:28:00;99500.0;;;-2.5;80.7
78679;BME280;67994;59.334;13.528;2023-03-26T00:29:00;99500.0;;;-2.6;80.3
78679;BME280;67994;59.334;13.528;2023-03-26T00:30:00;99500.0;;;-2.6;80.3
78679;BME280;67994;59.334;13.528;2023-03-26T00:31:02;99500.0;;;-2.5;80.7
78679;BME280;67994;59.334;13.528;2023-03-26T00:32:00;99500.0;;;-2.5;80.9
78679;BME280;67994;59.334;13.528;2023-03-26T00:33:00;99500.0;;;-2.5;80.3
78679;BME280;67994;59.334;13.528;2023-03-26T00:34:00;99500.0;;;-2.5;80.4
78679;BME280;67994;59.334;13.528;2023-03-26T00:35:00;99500.0;;;-2.5;80.3
78679;BME280;67994;59.334;13.528;2023-03-26T00:36:00;99500.0;;;-2.6;80.0
78679;BME280;67994;59.334;13.528;2023-03-26T00:37:00;99500.0;;;-2.5;80.3
78679;BME280;67994;59.334;13.528;2023-03-26T00:38:00;99500.0;;;-2.5;80.9
78679;BME280;67994;59.334;13.528;2023-03-26T00:39:00;99500.0;;;-2.5;80.0
78679;BME280;67994;59.334;13.528;2023-03-26T00:40:00;99500.0;;;-2.5;80.3
78679;BME280;67994;59.334;13.528;2023-03-26T00:41:00;99500.0;;;-2.6;80.1
78679;BME280;67994;59.334;13.528;2023-03-26T00:42:00;99500.0;;;-2.5;80.2
78679;BME280;67994;59.334;13.528;2023-03-26T00:43:00;99500.0;;;-2.5;80.2
78679;BME280;67994;59.334;13.528;2023-03-26T00:44:00;99500.0;;;-2.6;80.2
78679;BME280;67994;59.334;13.528;2023-03-26T00:45:00;99500.0;;;-2.6;79.6
78679;BME280;67994;59.334;13.528;2023-03-26T00:46:00;99500.0;;;-2.7;79.7
78679;BME280;67994;59.334;13.528;2023-03-26T00:47:00;99500.0;;;-2.6;79.4
78679;BME280;67994;59.334;13.528;2023-03-26T00:48:00;99500.0;;;-2.7;79.5
78679;BME280;67994;59.334;13.528;2023-03-26T00:49:00;99500.0;;;-2.6;79.6
78679;BME280;67994;59.334;13.528;2023-03-26T00:50:00;99500.0;;;-2.6;79.8
78679;BME280;67994;59.334;13.528;2023-03-26T00:51:00;99500.0;;;-2.7;79.5
78679;BME280;67994;59.334;13.528;2023-03-26T00:52:00;99500.0;;;-2.6;79.7
78679;BME280;67994;59.334;13.528;2023-03-26T00:53:00;99500.0;;;-2.6;80.1
78679;BME280;67994;59.334;13.528;2023-03-26T00:54:00;99500.0;;;-2.6;80.1
78679;BME280;67994;59.334;13.528;2023-03-26T00:55:00;99500.0;;;-2.7;79.5
78679;BME280;67994;59.334;13.528;2023-03-26T00:56:00;99500.0;;;-2.7;79.4
78679;BME280;67994;59.334;13.528;2023-03-26T00:57:00;99500.0;;;-2.6;79.4
78679;BME280;67994;59.334;13.528;2023-03-26T00:58:00;99500.0;;;-2.7;79.4
78679;BME280;67994;59.334;13.528;2023-03-26T00:59:00;99500.0;;;-2.7;79.6
78679;BME280;67994;59.334;13.528;2023-03-26T01:00:00;99500.0;;;-2.6;79.7
78679;BME280;67994;59.334;13.528;2023-03-26T01:01:02;99500.0;;;-2.6;79.9
78679;BME280;67994;59.334;13.528;2023-03-26T01:02:00;99500.0;;;-2.6;79.7
78679;BME280;67994;59.334;13.528;2023-03-26T01:03:00;99500.0;;;-2.7;79.6
78679;BME280;67994;59.334;13.528;2023-03-26T01:06:01;99500.0;;;-2.7;79.6
78679;BME280;67994;59.334;13.528;2023-03-26T01:07:02;99500.0;;;-2.8;79.0
78679;BME280;67994;59.334;13.528;2023-03-26T01:08:00;99500.0;;;-2.8;79.3
78679;BME280;67994;59.334;13.528;2023-03-26T01:09:02;99500.0;;;-2.7;79.7
78679;BME280;67994;59.334;13.528;2023-03-26T01:10:00;99500.0;;;-2.7;79.9
78679;BME280;67994;59.334;13.528;2023-03-26T01:11:04;99500.0;;;-2.8;79.8
78679;BME280;67994;59.334;13.528;2023-03-26T01:12:02;99500.0;;;-2.8;79.6
78679;BME280;67994;59.334;13.528;2023-03-26T01:13:00;99500.0;;;-2.7;80.2
78679;BME280;67994;59.334;13.528;2023-03-26T01:14:04;99500.0;;;-2.7;80.3
78679;BME280;67994;59.334;13.528;2023-03-26T01:15:01;99500.0;;;-2.7;80.3
78679;BME280;67994;59.334;13.528;2023-03-26T01:16:00;99500.0;;;-2.7;80.3
78679;BME280;67994;59.334;13.528;2023-03-26T01:17:02;99500.0;;;-2.6;80.3
78679;BME280;67994;59.334;13.528;2023-03-26T01:18:00;99500.0;;;-2.7;80.0
78679;BME280;67994;59.334;13.528;2023-03-26T01:19:00;99500.0;;;-2.7;79.7
78679;BME280;67994;59.334;13.528;2023-03-26T01:20:07;99500.0;;;-2.7;79.9
78679;BME280;67994;59.334;13.528;2023-03-26T01:21:01;99500.0;;;-2.8;79.7
78679;BME280;67994;59.334;13.528;2023-03-26T01:22:00;99500.0;;;-2.8;79.9
78679;BME280;67994;59.334;13.528;2023-03-26T01:23:02;99500.0;;;-2.7;79.8
78679;BME280;67994;59.334;13.528;2023-03-26T01:24:01;99500.0;;;-2.8;80.0
78679;BME280;67994;59.334;13.528;2023-03-26T01:25:00;99500.0;;;-2.7;79.8
78679;BME280;67994;59.334;13.528;2023-03-26T01:26:04;99500.0;;;-2.7;79.8
78679;BME280;67994;59.334;13.528;2023-03-26T01:27:07;99500.0;;;-2.7;79.9
78679;BME280;67994;59.334;13.528;2023-03-26T01:28:00;99500.0;;;-2.8;79.7
78679;BME280;67994;59.334;13.528;2023-03-26T01:29:02;99500.0;;;-2.8;79.5
78679;BME280;67994;59.334;13.528;2023-03-26T01:30:04;99500.0;;;-2.8;79.8
78679;BME280;67994;59.334;13.528;2023-03-26T01:31:06;99500.0;;;-2.7;80.1
78679;BME280;67994;59.334;13.528;2023-03-26T01:32:06;99500.0;;;-2.8;80.1
78679;BME280;67994;59.334;13.528;2023-03-26T01:33:03;99500.0;;;-2.8;79.9
78679;BME280;67994;59.334;13.528;2023-03-26T01:34:04;99500.0;;;-2.8;79.9
78679;BME280;67994;59.334;13.528;2023-03-26T01:35:10;99500.0;;;-2.8;79.9
78679;BME280;67994;59.334;13.528;2023-03-26T01:36:03;99500.0;;;-2.8;80.1
78679;BME280;67994;59.334;13.528;2023-03-26T01:37:10;99500.0;;;-2.8;80.4
78679;BME280;67994;59.334;13.528;2023-03-26T01:38:07;99500.0;;;-2.8;80.3
78679;BME280;67994;59.334;13.528;2023-03-26T01:39:03;99500.0;;;-2.8;80.3
78679;BME280;67994;59.334;13.528;2023-03-26T01:40:03;99500.0;;;-2.9;80.1
78679;BME280;67994;59.334;13.528;2023-03-26T01:41:03;99500.0;;;-2.9;80.3
78679;BME280;67994;59.334;13.528;2023-03-26T01:42:03;99500.0;;;-2.9;80.2
78679;BME280;67994;59.334;13.528;2023-03-26T01:43:07;99500.0;;;-2.9;80.7
78679;BME280;67994;59.334;13.528;2023-03-26T01:44:05;99500.0;;;-2.9;80.9
78679;BME280;67994;59.334;13.528;2023-03-26T01:45:06;99500.0;;;-2.9;80.4
78679;BME280;67994;59.334;13.528;2023-03-26T01:46:04;99500.0;;;-2.9;80.2
78679;BME280;67994;59.334;13.528;2023-03-26T01:47:00;99500.0;;;-2.8;80.6
78679;BME280;67994;59.334;13.528;2023-03-26T01:48:00;99500.0;;;-2.9;80.2
78679;BME280;67994;59.334;13.528;2023-03-26T01:49:01;99500.0;;;-2.9;80.1
78679;BME280;67994;59.334;13.528;2023-03-26T01:50:00;99500.0;;;-2.9;80.3
78679;BME280;67994;59.334;13.528;2023-03-26T01:51:00;99500.0;;;-2.9;80.1
78679;BME280;67994;59.334;13.528;2023-03-26T01:52:00;99500.0;;;-2.9;80.4
78679;BME280;67994;59.334;13.528;2023-03-26T01:53:00;99500.0;;;-2.9;80.4
78679;BME280;67994;59.334;13.528;2023-03-26T01:54:03;99500.0;;;-2.9;80.4
78679;BME280;67994;59.334;13.528;2023-03-26T01:55:00;99500.0;;;-2.9;80.4
78679;BME280;67994;59.334;13.528;2023-03-26T01:56:05;99500.0;;;-2.9;80.4
78679;BME280;67994;59.334;13.528;2023-03-26T01:57:08;99500.0;;;-2.9;80.4
78679;BME280;67994;59.334;13.528;2023-03-26T01:58:07;99500.0;;;-2.9;80.4
78679;BME280;67994;59.334;13.528;2023-03-26T01:59:07;99500.0;;;-2.9;80.4
78679;BME280;67994;59.334;13.528;2023-03-26T02:00:05;99500.0;;;-2.9;80.4
78679;BME280;67994;59.334;13.528;2023-03-26T02:01:05;99500.0;;;-2.9;80.4
78679;BME280;67994;59.334;13.528;2023-03-26T02:02:06;99500.0;;;-2.9;80.4
78679;BME280;67994;59.334;13.528;2023-03-26T02:03:07;99500.0;;;-2.9;80.4
78679;BME280;67994;59.334;13.528;2023-03-26T02:04:05;99500.0;;;-2.9;80.4
78679;BME280;67994;59.334;13.528;2023-03-26T02:05:05;99500.0;;;-2.9;80.4
78679;BME280;67994;59.334;13.528;2023-03-26T02:06:04;99500.0;;;-2.9;80.4
78679;BME280;67994;59.334;13.528;2023-03-26T02:07:04;99500.0;;;-2.9;80.4
78679;BME280;67994;59.334;13.528;2023-03-26T02:08:04;99500.0;;;-2.9;80.4
78679;BME280;67994;59.334;13.528;2023-03-26T02:09:02;99500.0;;;-2.9;80.4
78679;BME280;67994;59.334;13.528;2023-03-26T02:10:03;99500.0;;;-2.9;80.4
78679;BME280;67994;59.334;13.528;2023-03-26T02:11:02;99500.0;;;-2.9;80.4
78679;BME280;67994;59.334;13.528;2023-03-26T02:12:02;99500.0;;;-2.9;80.4
78679;BME280;67994;59.334;13.528;2023-03-26T02:13:00;99500.0;;;-2.9;80.4
78679;BME280;67994;59.334;13.528;2023-03-26T02:14:00;99500.0;;;-2.9;80.4
78679;BME280;67994;59.334;13.528;2023-03-26T02:15:00;99500.0;;;-2.9;80.4
78679;BME280;67994;59.334;13.528;2023-03-26T02:16:03;99500.0;;;-2.9;80.4
78679;BME280;67994;59.334;13.528;2023-03-26T02:17:00;99500.0;;;-3.0;80.8
78679;BME280;67994;59.334;13.528;2023-03-26T02:18:00;99500.0;;;-3.0;80.8
78679;BME280;67994;59.334;13.528;2023-03-26T02:19:00;99500.0;;;-3.1;81.6
78679;BME280;67994;59.334;13.528;2023-03-26T02:20:00;99500.0;;;-3.1;81.6
78679;BME280;67994;59.334;13.528;2023-03-26T02:21:00;99500.0;;;-3.1;81.6
78679;BME280;67994;59.334;13.528;2023-03-26T02:22:00;99500.0;;;-3.1;81.6
78679;BME280;67994;59.334;13.528;2023-03-26T02:23:00;99500.0;;;-3.1;81.6
78679;BME280;67994;59.334;13.528;2023-03-26T02:24:00;99500.0;;;-3.0;80.7
78679;BME280;67994;59.334;13.528;2023-03-26T02:25:00;99500.0;;;-3.0;80.7
78679;BME280;67994;59.334;13.528;2023-03-26T02:26:02;99500.0;;;-3.0;80.7
78679;BME280;67994;59.334;13.528;2023-03-26T02:27:00;99500.0;;;-3.0;80.7
78679;BME280;67994;59.334;13.528;2023-03-26T02:28:00;99500.0;;;-3.0;80.7
78679;BME280;67994;59.334;13.528;2023-03-26T02:29:00;99500.0;;;-3.2;81.4
78679;BME280;67994;59.334;13.528;2023-03-26T02:30:00;99500.0;;;-3.2;79.6
78679;BME280;67994;59.334;13.528;2023-03-26T02:31:00;99500.0;;;-3.1;79.4
78679;BME280;67994;59.334;13.528;2023-03-26T02:32:00;99500.0;;;-3.2;79.7
78679;BME280;67994;59.334;13.528;2023-03-26T02:33:00;99500.0;;;-3.2;79.3
78679;BME280;67994;59.334;13.528;2023-03-26T02:34:00;99500.0;;;-3.2;78.7
78679;BME280;67994;59.334;13.528;2023-03-26T02:35:00;99500.0;;;-3.3;78.6
78679;BME280;67994;59.334;13.528;2023-03-26T02:36:00;99500.0;;;-3.3;79.0
78679;BME280;67994;59.334;13.528;2023-03-26T02:37:00;99500.0;;;-3.2;79.1
78679;BME280;67994;59.334;13.528;2023-03-26T02:38:00;99500.0;;;-3.2;79.2
78679;BME280;67994;59.334;13.528;2023-03-26T02:39:00;99500.0;;;-3.2;79.2
78679;BME280;67994;59.334;13.528;2023-03-26T02:40:00;99500.0;;;-3.2;79.3
78679;BME280;67994;59.334;13.528;2023-03-26T02:41:00;99500.0;;;-3.3;79.6
78679;BME280;67994;59.334;13.528;2023-03-26T02:42:00;99500.0;;;-3.3;79.6
78679;BME280;67994;59.334;13.528;2023-03-26T02:43:00;99500.0;;;-3.3;79.1
78679;BME280;67994;59.334;13.528;2023-03-26T02:44:00;99500.0;;;-3.3;79.1
78679;BME280;67994;59.334;13.528;2023-03-26T02:45:00;99500.0;;;-3.3;79.1
78679;BME280;67994;59.334;13.528;2023-03-26T02:46:00;99500.0;;;-3.3;79.6
78679;BME280;67994;59.334;13.528;2023-03-26T02:47:00;99500.0;;;-3.3;79.4
78679;BME280;67994;59.334;13.528;2023-03-26T02:48:00;99500.0;;;-3.3;79.4
78679;BME280;67994;59.334;13.528;2023-03-26T02:49:00;99500.0;;;-3.4;79.5
78679;BME280;67994;59.334;13.528;2023-03-26T02:50:00;99500.0;;;-3.4;79.6
78679;BME280;67994;59.334;13.528;2023-03-26T02:51:00;99500.0;;;-3.4;79.5
78679;BME280;67994;59.334;13.528;2023-03-26T02:52:00;99500.0;;;-3.4;79.5
78679;BME280;67994;59.334;13.528;2023-03-26T02:53:00;99500.0;;;-3.5;79.5
78679;BME280;67994;59.334;13.528;2023-03-26T02:54:00;99500.0;;;-3.4;79.3
78679;BME280;67994;59.334;13.528;2023-03-26T02:55:00;99500.0;;;-3.4;79.8
78679;BME280;67994;59.334;13.528;2023-03-26T02:56:00;99500.0;;;-3.4;80.1
78679;BME280;67994;59.334;13.528;2023-03-26T02:57:00;99500.0;;;-3.4;80.1
78679;BME280;67994;59.334;13.528;2023-03-26T02:58:00;99500.0;;;-3.4;79.9
78679;BME280;67994;59.334;13.528;2023-03-26T02:59:00;99500.0;;;-3.4;79.4
78679;BME280;67994;59.334;13.528;2023-03-26T03:00:00;99500.0;;;-3.5;79.4
78679;BME280;67994;59.334;13.528;2023-03-26T03:01:00;99500.0;;;-3.5;79.5
78679;BME280;67994;59.334;13.528;2023-03-26T03:02:00;99500.0;;;-3.5;79.1
78679;BME280;67994;59.334;13.528;2023-03-26T03:03:00;99500.0;;;-3.5;78.8
78679;BME280;67994;59.334;13.528;2023-03-26T03:04:01;99500.0;;;-3.5;78.8
78679;BME280;67994;59.334;13.528;2023-03-26T03:05:00;99500.0;;;-3.5;78.8
78679;BME280;67994;59.334;13.528;2023-03-26T03:06:00;99500.0;;;-3.5;78.9
78679;BME280;67994;59.334;13.528;2023-03-26T03:07:00;99500.0;;;-3.5;79.1
78679;BME280;67994;59.334;13.528;2023-03-26T03:08:00;99500.0;;;-3.5;79.5
78679;BME280;67994;59.334;13.528;2023-03-26T03:09:00;99500.0;;;-3.5;79.7
78679;BME280;67994;59.334;13.528;2023-03-26T03:10:00;99500.0;;;-3.5;79.8
78679;BME280;67994;59.334;13.528;2023-03-26T03:11:02;99500.0;;;-3.6;79.4
78679;BME280;67994;59.334;13.528;2023-03-26T03:12:00;99500.0;;;-3.5;79.5
78679;BME280;67994;59.334;13.528;2023-03-26T03:13:00;99600.0;;;-3.5;80.1
78679;BME280;67994;59.334;13.528;2023-03-26T03:14:00;99600.0;;;-3.5;80.1
78679;BME280;67994;59.334;13.528;2023-03-26T03:15:00;99600.0;;;-3.6;79.6
78679;BME280;67994;59.334;13.528;2023-03-26T03:16:00;99600.0;;;-3.5;79.4
78679;BME280;67994;59.334;13.528;2023-03-26T03:17:00;99600.0;;;-3.5;79.9
78679;BME280;67994;59.334;13.528;2023-03-26T03:18:00;99600.0;;;-3.6;80.0
78679;BME280;67994;59.334;13.528;2023-03-26T03:19:00;99600.0;;;-3.5;79.7
78679;BME280;67994;59.334;13.528;2023-03-26T03:20:00;99600.0;;;-3.6;80.0
78679;BME280;67994;59.334;13.528;2023-03-26T03:21:00;99600.0;;;-3.6;80.0
78679;BME280;67994;59.334;13.528;2023-03-26T03:22:00;99600.0;;;-3.6;80.2
78679;BME280;67994;59.334;13.528;2023-03-26T03:23:00;99600.0;;;-3.6;79.7
78679;BME280;67994;59.334;13.528;2023-03-26T03:24:00;99600.0;;;-3.7;79.6
78679;BME280;67994;59.334;13.528;2023-03-26T03:25:00;99600.0;;;-3.7;79.5
78679;BME280;67994;59.334;13.528;2023-03-26T03:26:00;99600.0;;;-3.7;79.3
78679;BME280;67994;59.334;13.528;2023-03-26T03:27:00;99600.0;;;-3.7;79.6
78679;BME280;67994;59.334;13.528;2023-03-26T03:28:00;99600.0;;;-3.6;80.0
78679;BME280;67994;59.334;13.528;2023-03-26T03:29:00;99600.0;;;-3.6;80.0
78679;BME280;67994;59.334;13.528;2023-03-26T03:30:00;99600.0;;;-3.6;80.1
78679;BME280;67994;59.334;13.528;2023-03-26T03:31:00;99600.0;;;-3.6;80.0
78679;BME280;67994;59.334;13.528;2023-03-26T03:32:00;99600.0;;;-3.7;79.5
78679;BME280;67994;59.334;13.528;2023-03-26T03:33:00;99600.0;;;-3.6;79.7
78679;BME280;67994;59.334;13.528;2023-03-26T03:34:00;99600.0;;;-3.7;79.5
78679;BME280;67994;59.334;13.528;2023-03-26T03:35:00;99600.0;;;-3.7;79.5
78679;BME280;67994;59.334;13.528;2023-03-26T03:36:00;99600.0;;;-3.7;79.8
78679;BME280;67994;59.334;13.528;2023-03-26T03:37:00;99600.0;;;-3.7;80.0
78679;BME280;67994;59.334;13.528;2023-03-26T03:38:00;99600.0;;;-3.7;80.0
78679;BME280;67994;59.334;13.528;2023-03-26T03:39:00;99600.0;;;-3.7;80.0
78679;BME280;67994;59.334;13.528;2023-03-26T03:40:00;99600.0;;;-3.7;80.0
78679;BME280;67994;59.334;13.528;2023-03-26T03:41:00;99600.0;;;-3.7;80.0
78679;BME280;67994;59.334;13.528;2023-03-26T03:42:00;99600.0;;;-3.7;80.0
78679;BME280;67994;59.334;13.528;2023-03-26T03:43:00;99600.0;;;-3.7;80.0
78679;BME280;67994;59.334;13.528;2023-03-26T03:44:00;99600.0;;;-3.7;80.0
78679;BME280;67994;59.334;13.528;2023-03-26T03:45:00;99600.0;;;-3.7;80.0
78679;BME280;67994;59.334;13.528;2023-03-26T03:46:00;99600.0;;;-3.7;80.0
78679;BME280;67994;59.334;13.528;2023-03-26T03:47:00;99600.0;;;-3.7;80.0
78679;BME280;67994;59.334;13.528;2023-03-26T03:48:00;99600.0;;;-3.7;80.0
78679;BME280;67994;59.334;13.528;2023-03-26T03:49:00;99600.0;;;-3.7;80.0
78679;BME280;67994;59.334;13.528;2023-03-26T03:50:00;99600.0;;;-3.7;80.0
78679;BME280;67994;59.334;13.528;2023-03-26T03:51:00;99600.0;;;-3.7;80.0
78679;BME280;67994;59.334;13.528;2023-03-26T03:52:00;99600.0;;;-3.7;80.0
78679;BME280;67994;59.334;13.528;2023-03-26T03:53:00;99600.0;;;-3.7;80.0
78679;BME280;67994;59.334;13.528;2023-03-26T03:54:00;99600.0;;;-3.7;80.0
78679;BME280;67994;59.334;13.528;2023-03-26T03:55:00;99600.0;;;-3.7;80.0
78679;BME280;67994;59.334;13.528;2023-03-26T03:56:00;99600.0;;;-3.7;80.0
78679;BME280;67994;59.334;13.528;2023-03-26T03:57:00;99600.0;;;-3.7;80.0
78679;BME280;67994;59.334;13.528;2023-03-26T03:58:00;99600.0;;;-3.7;80.0
78679;BME280;67994;59.334;13.528;2023-03-26T03:59:00;99600.0;;;-3.7;80.0
78679;BME280;67994;59.334;13.528;2023-03-26T04:00:00;99600.0;;;-3.7;80.0
78679;BME280;67994;59.334;13.528;2023-03-26T04:01:00;99600.0;;;-3.7;80.0
78679;BME280;67994;59.334;13.528;2023-03-26T04:02:00;99600.0;;;-3.7;80.0
78679;BME280;67994;59.334;13.528;2023-03-26T04:03:00;99600.0;;;-3.7;80.0
78679;BME280;67994;59.334;13.528;2023-03-26T04:04:00;99600.0;;;-3.7;80.0
78679;BME280;67994;59.334;13.528;2023-03-26T04:05:00;99600.0;;;-3.7;80.0
78679;BME280;67994;59.334;13.528;2023-03-26T04:06:00;99600.0;;;-3.7;80.0
78679;BME280;67994;59.334;13.528;2023-03-26T04:07:00;99600.0;;;-3.7;80.0
78679;BME280;67994;59.334;13.528;2023-03-26T04:08:00;99600.0;;;-3.7;80.0
78679;BME280;67994;59.334;13.528;2023-03-26T04:09:00;99600.0;;;-3.7;80.0
78679;BME280;67994;59.334;13.528;2023-03-26T04:10:00;99600.0;;;-3.7;80.0
78679;BME280;67994;59.334;13.528;2023-03-26T04:11:00;99600.0;;;-3.7;80.0
78679;BME280;67994;59.334;13.528;2023-03-26T04:12:00;99600.0;;;-3.7;80.0
78679;BME280;67994;59.334;13.528;2023-03-26T04:13:00;99600.0;;;-3.7;80.0
78679;BME280;67994;59.334;13.528;2023-03-26T04:14:00;99600.0;;;-3.7;80.0
78679;BME280;67994;59.334;13.528;2023-03-26T04:15:00;99600.0;;;-3.7;80.0
78679;BME280;67994;59.334;13.528;2023-03-26T04:16:00;99600.0;;;-3.7;80.0
78679;BME280;67994;59.334;13.528;2023-03-26T04:17:00;99600.0;;;-3.7;80.0
78679;BME280;67994;59.334;13.528;2023-03-26T04:18:00;99600.0;;;-3.7;80.0
78679;BME280;67994;59.334;13.528;2023-03-26T04:19:00;99600.0;;;-3.7;80.0
78679;BME280;67994;59.334;13.528;2023-03-26T04:20:00;99600.0;;;-3.7;80.0
78679;BME280;67994;59.334;13.528;2023-03-26T04:21:00;99600.0;;;-3.7;80.0
78679;BME280;67994;59.334;13.528;2023-03-26T04:22:00;99600.0;;;-3.7;80.0
78679;BME280;67994;59.334;13.528;2023-03-26T04:23:00;99600.0;;;-3.7;80.0
78679;BME280;67994;59.334;13.528;2023-03-26T04:24:00;99600.0;;;-3.7;80.0
78679;BME280;67994;59.334;13.528;2023-03-26T04:25:00;99600.0;;;-3.7;80.0
78679;BME280;67994;59.334;13.528;2023-03-26T04:26:01;99600.0;;;-3.7;80.0
78679;BME280;67994;59.334;13.528;2023-03-26T04:27:00;99600.0;;;-3.7;80.0
78679;BME280;67994;59.334;13.528;2023-03-26T04:28:01;99600.0;;;-3.7;80.0
78679;BME280;67994;59.334;13.528;2023-03-26T04:29:02;99600.0;;;-3.7;80.0
78679;BME280;67994;59.334;13.528;2023-03-26T04:30:00;99600.0;;;-3.7;80.0
78679;BME280;67994;59.334;13.528;2023-03-26T04:31:00;99600.0;;;-3.7;80.0
78679;BME280;67994;59.334;13.528;2023-03-26T04:32:00;99600.0;;;-3.7;80.0
78679;BME280;67994;59.334;13.528;2023-03-26T04:33:00;99600.0;;;-3.7;80.0
78679;BME280;67994;59.334;13.528;2023-03-26T04:34:05;99600.0;;;-3.7;80.0
78679;BME280;67994;59.334;13.528;2023-03-26T04:35:01;99600.0;;;-3.7;80.0
78679;BME280;67994;59.334;13.528;2023-03-26T04:36:00;99600.0;;;-3.7;80.0
78679;BME280;67994;59.334;13.528;2023-03-26T04:37:01;99600.0;;;-3.7;80.0
78679;BME280;67994;59.334;13.528;2023-03-26T04:38:01;99600.0;;;-3.7;80.0
78679;BME280;67994;59.334;13.528;2023-03-26T04:39:02;99600.0;;;-3.7;80.0
78679;BME280;67994;59.334;13.528;2023-03-26T04:40:00;99600.0;;;-3.7;80.0
78679;BME280;67994;59.334;13.528;2023-03-26T04:41:00;99600.0;;;-3.7;80.0
78679;BME280;67994;59.334;13.528;2023-03-26T04:42:00;99600.0;;;-3.7;80.0
78679;BME280;67994;59.334;13.528;2023-03-26T04:43:00;99600.0;;;-3.7;80.0
78679;BME280;67994;59.334;13.528;2023-03-26T04:44:00;99600.0;;;-3.7;80.0
78679;BME280;67994;59.334;13.528;2023-03-26T04:45:00;99600.0;;;-3.7;80.0
78679;BME280;67994;59.334;13.528;2023-03-26T04:46:00;99600.0;;;-3.7;80.0
78679;BME280;67994;59.334;13.528;2023-03-26T04:47:00;99600.0;;;-3.7;80.0
78679;BME280;67994;59.334;13.528;2023-03-26T04:48:00;99600.0;;;-3.7;80.0
78679;BME280;67994;59.334;13.528;2023-03-26T04:49:00;99600.0;;;-3.7;80.0
78679;BME280;67994;59.334;13.528;2023-03-26T04:50:00;99600.0;;;-3.7;80.0
78679;BME280;67994;59.334;13.528;2023-03-26T04:51:00;99600.0;;;-3.7;80.0
78679;BME280;67994;59.334;13.528;2023-03-26T04:52:00;99600.0;;;-3.7;80.0
78679;BME280;67994;59.334;13.528;2023-03-26T04:53:00;99600.0;;;-3.7;80.0
78679;BME280;67994;59.334;13.528;2023-03-26T04:54:00;99600.0;;;-3.7;80.0
78679;BME280;67994;59.334;13.528;2023-03-26T04:55:00;99600.0;;;-3.7;80.0
78679;BME280;67994;59.334;13.528;2023-03-26T04:56:04;99600.0;;;-3.7;80.0
78679;BME280;67994;59.334;13.528;2023-03-26T04:57:02;99600.0;;;-3.7;80.0
78679;BME280;67994;59.334;13.528;2023-03-26T04:58:00;99600.0;;;-3.7;80.0
78679;BME280;67994;59.334;13.528;2023-03-26T04:59:01;99600.0;;;-3.7;80.0
78679;BME280;67994;59.334;13.528;2023-03-26T05:00:00;99600.0;;;-3.7;80.0
78679;BME280;67994;59.334;13.528;2023-03-26T05:01:00;99600.0;;;-3.7;80.0
78679;BME280;67994;59.334;13.528;2023-03-26T05:02:00;99600.0;;;-3.7;80.0
78679;BME280;67994;59.334;13.528;2023-03-26T05:03:00;99600.0;;;-3.7;80.0
78679;BME280;67994;59.334;13.528;2023-03-26T05:04:00;99600.0;;;-3.7;80.0
78679;BME280;67994;59.334;13.528;2023-03-26T05:05:00;99600.0;;;-3.7;80.0
78679;BME280;67994;59.334;13.528;2023-03-26T05:06:00;99600.0;;;-3.7;80.0
78679;BME280;67994;59.334;13.528;2023-03-26T05:07:00;99600.0;;;-3.7;80.0
78679;BME280;67994;59.334;13.528;2023-03-26T05:08:00;99600.0;;;-3.7;80.0
78679;BME280;67994;59.334;13.528;2023-03-26T05:09:00;99600.0;;;-3.7;80.0
78679;BME280;67994;59.334;13.528;2023-03-26T05:10:00;99600.0;;;-3.7;80.0
78679;BME280;67994;59.334;13.528;2023-03-26T05:11:00;99600.0;;;-3.7;80.0
78679;BME280;67994;59.334;13.528;2023-03-26T05:12:00;99600.0;;;-3.7;80.0
78679;BME280;67994;59.334;13.528;2023-03-26T05:13:00;99600.0;;;-3.7;80.0
78679;BME280;67994;59.334;13.528;2023-03-26T05:14:00;99600.0;;;-3.7;80.0
78679;BME280;67994;59.334;13.528;2023-03-26T05:15:00;99600.0;;;-3.7;80.0
78679;BME280;67994;59.334;13.528;2023-03-26T05:16:00;99600.0;;;-3.7;80.0
78679;BME280;67994;59.334;13.528;2023-03-26T05:17:00;99600.0;;;-3.7;80.0
78679;BME280;67994;59.334;13.528;2023-03-26T05:18:00;99600.0;;;-3.7;80.0
78679;BME280;67994;59.334;13.528;2023-03-26T05:19:00;99600.0;;;-3.7;80.0
78679;BME280;67994;59.334;13.528;2023-03-26T05:20:00;99600.0;;;-3.7;80.0
78679;BME280;67994;59.334;13.528;2023-03-26T05:21:00;99600.0;;;-3.7;80.0
78679;BME280;67994;59.334;13.528;2023-03-26T05:22:00;99600.0;;;-3.7;80.0
78679;BME280;67994;59.334;13.528;2023-03-26T05:23:00;99600.0;;;-3.7;80.0
78679;BME280;67994;59.334;13.528;2023-03-26T05:24:00;99600.0;;;-3.7;80.0
78679;BME280;67994;59.334;13.528;2023-03-26T05:25:00;99600.0;;;-3.7;80.0
78679;BME280;67994;59.334;13.528;2023-03-26T05:26:00;99600.0;;;-3.7;80.0
78679;BME280;67994;59.334;13.528;2023-03-26T05:27:00;99600.0;;;-3.7;80.0
78679;BME280;67994;59.334;13.528;2023-03-26T05:28:00;99600.0;;;-3.7;80.0